sensor_id;sensor_type;location;lat;lon;timestamp;P1;durP1;ratioP1;P2;durP2;ratioP2
63394;SDS011;49531;-34.520;150.798;2023-05-07T00:00:04;0.57;;;0.50;;
63394;SDS011;49531;-34.520;150.798;2023-05-07T00:02:33;0.50;;;0.50;;
63394;SDS011;49531;-34.520;150.798;2023-05-07T00:05:01;0.50;;;0.50;;
63394;SDS011;49531;-34.520;150.798;2023-05-07T00:07:29;0.50;;;0.50;;
63394;SDS011;49531;-34.520;150.798;2023-05-07T00:09:56;0.50;;;0.50;;
63394;SDS011;49531;-34.520;150.798;2023-05-07T00:12:23;0.40;;;0.40;;
63394;SDS011;49531;-34.520;150.798;2023-05-07T00:14:51;0.60;;;0.60;;
63394;SDS011;49531;-34.520;150.798;2023-05-07T00:17:18;0.95;;;0.75;;
63394;SDS011;49531;-34.520;150.798;2023-05-07T00:19:45;0.68;;;0.50;;
63394;SDS011;49531;-34.520;150.798;2023-05-07T00:22:12;0.70;;;0.50;;
63394;SDS011;49531;-34.520;150.798;2023-05-07T00:24:39;0.55;;;0.55;;
63394;SDS011;49531;-34.520;150.798;2023-05-07T00:27:07;0.40;;;0.40;;
63394;SDS011;49531;-34.520;150.798;2023-05-07T00:29:35;0.73;;;0.52;;
63394;SDS011;49531;-34.520;150.798;2023-05-07T00:32:02;0.60;;;0.50;;
63394;SDS011;49531;-34.520;150.798;2023-05-07T00:34:30;0.50;;;0.50;;
63394;SDS011;49531;-34.520;150.798;2023-05-07T00:36:57;0.93;;;0.63;;
63394;SDS011;49531;-34.520;150.798;2023-05-07T00:39:24;0.90;;;0.50;;
63394;SDS011;49531;-34.520;150.798;2023-05-07T00:41:51;0.50;;;0.50;;
63394;SDS011;49531;-34.520;150.798;2023-05-07T00:44:18;0.70;;;0.70;;
63394;SDS011;49531;-34.520;150.798;2023-05-07T00:46:45;0.60;;;0.60;;
63394;SDS011;49531;-34.520;150.798;2023-05-07T00:49:15;0.60;;;0.60;;
63394;SDS011;49531;-34.520;150.798;2023-05-07T00:51:43;0.50;;;0.50;;
63394;SDS011;49531;-34.520;150.798;2023-05-07T00:54:11;1.58;;;0.52;;
63394;SDS011;49531;-34.520;150.798;2023-05-07T00:56:39;0.55;;;0.55;;
63394;SDS011;49531;-34.520;150.798;2023-05-07T00:59:07;0.73;;;0.68;;
63394;SDS011;49531;-34.520;150.798;2023-05-07T01:01:35;0.70;;;0.70;;
63394;SDS011;49531;-34.520;150.798;2023-05-07T01:04:02;2.80;;;0.50;;
63394;SDS011;49531;-34.520;150.798;2023-05-07T01:06:29;0.95;;;0.65;;
63394;SDS011;49531;-34.520;150.798;2023-05-07T01:08:58;1.05;;;0.60;;
63394;SDS011;49531;-34.520;150.798;2023-05-07T01:11:26;0.55;;;0.55;;
63394;SDS011;49531;-34.520;150.798;2023-05-07T01:13:54;0.95;;;0.50;;
63394;SDS011;49531;-34.520;150.798;2023-05-07T01:16:22;0.60;;;0.60;;
63394;SDS011;49531;-34.520;150.798;2023-05-07T01:18:49;0.55;;;0.55;;
63394;SDS011;49531;-34.520;150.798;2023-05-07T01:21:16;0.70;;;0.70;;
63394;SDS011;49531;-34.520;150.798;2023-05-07T01:23:44;1.20;;;0.70;;
63394;SDS011;49531;-34.520;150.798;2023-05-07T01:26:13;0.73;;;0.70;;
63394;SDS011;49531;-34.520;150.798;2023-05-07T01:28:40;1.60;;;0.68;;
63394;SDS011;49531;-34.520;150.798;2023-05-07T01:31:08;1.05;;;0.70;;
63394;SDS011;49531;-34.520;150.798;2023-05-07T01:33:36;0.80;;;0.70;;
63394;SDS011;49531;-34.520;150.798;2023-05-07T01:36:06;1.40;;;0.60;;
63394;SDS011;49531;-34.520;150.798;2023-05-07T01:38:36;0.82;;;0.70;;
63394;SDS011;49531;-34.520;150.798;2023-05-07T01:41:04;0.70;;;0.70;;
63394;SDS011;49531;-34.520;150.798;2023-05-07T01:43:32;0.70;;;0.65;;
63394;SDS011;49531;-34.520;150.798;2023-05-07T01:46:00;0.70;;;0.70;;
63394;SDS011;49531;-34.520;150.798;2023-05-07T01:48:29;0.60;;;0.60;;
63394;SDS011;49531;-34.520;150.798;2023-05-07T01:50:56;1.45;;;0.75;;
63394;SDS011;49531;-34.520;150.798;2023-05-07T01:53:26;0.98;;;0.90;;
63394;SDS011;49531;-34.520;150.798;2023-05-07T01:55:54;0.88;;;0.70;;
63394;SDS011;49531;-34.520;150.798;2023-05-07T01:58:21;0.90;;;0.80;;
63394;SDS011;49531;-34.520;150.798;2023-05-07T02:00:48;0.90;;;0.90;;
63394;SDS011;49531;-34.520;150.798;2023-05-07T02:03:16;0.70;;;0.70;;
63394;SDS011;49531;-34.520;150.798;2023-05-07T02:05:43;0.80;;;0.80;;
63394;SDS011;49531;-34.520;150.798;2023-05-07T02:08:11;1.50;;;0.73;;
63394;SDS011;49531;-34.520;150.798;2023-05-07T02:10:38;0.77;;;0.77;;
63394;SDS011;49531;-34.520;150.798;2023-05-07T02:13:05;2.90;;;0.90;;
63394;SDS011;49531;-34.520;150.798;2023-05-07T02:15:32;0.70;;;0.70;;
63394;SDS011;49531;-34.520;150.798;2023-05-07T02:18:01;1.08;;;0.80;;
63394;SDS011;49531;-34.520;150.798;2023-05-07T02:20:30;0.80;;;0.80;;
63394;SDS011;49531;-34.520;150.798;2023-05-07T02:22:57;2.28;;;0.82;;
63394;SDS011;49531;-34.520;150.798;2023-05-07T02:25:25;1.75;;;0.80;;
63394;SDS011;49531;-34.520;150.798;2023-05-07T02:27:52;3.08;;;1.00;;
63394;SDS011;49531;-34.520;150.798;2023-05-07T02:30:19;1.13;;;0.80;;
63394;SDS011;49531;-34.520;150.798;2023-05-07T02:32:46;0.77;;;0.77;;
63394;SDS011;49531;-34.520;150.798;2023-05-07T02:35:14;1.10;;;0.80;;
63394;SDS011;49531;-34.520;150.798;2023-05-07T02:37:42;2.28;;;0.70;;
63394;SDS011;49531;-34.520;150.798;2023-05-07T02:40:09;3.00;;;1.00;;
63394;SDS011;49531;-34.520;150.798;2023-05-07T02:42:37;1.00;;;0.80;;
63394;SDS011;49531;-34.520;150.798;2023-05-07T02:45:04;1.00;;;0.80;;
63394;SDS011;49531;-34.520;150.798;2023-05-07T02:47:32;0.75;;;0.75;;
63394;SDS011;49531;-34.520;150.798;2023-05-07T02:49:59;1.02;;;0.93;;
63394;SDS011;49531;-34.520;150.798;2023-05-07T02:52:27;0.70;;;0.70;;
63394;SDS011;49531;-34.520;150.798;2023-05-07T02:54:54;1.10;;;0.70;;
63394;SDS011;49531;-34.520;150.798;2023-05-07T02:57:21;0.70;;;0.70;;
63394;SDS011;49531;-34.520;150.798;2023-05-07T02:59:48;0.70;;;0.70;;
63394;SDS011;49531;-34.520;150.798;2023-05-07T03:02:16;0.60;;;0.60;;
63394;SDS011;49531;-34.520;150.798;2023-05-07T03:04:43;1.15;;;0.70;;
63394;SDS011;49531;-34.520;150.798;2023-05-07T03:07:11;1.25;;;0.70;;
63394;SDS011;49531;-34.520;150.798;2023-05-07T03:09:38;0.70;;;0.70;;
63394;SDS011;49531;-34.520;150.798;2023-05-07T03:12:06;0.70;;;0.60;;
63394;SDS011;49531;-34.520;150.798;2023-05-07T03:14:33;2.20;;;0.70;;
63394;SDS011;49531;-34.520;150.798;2023-05-07T03:17:00;1.25;;;0.70;;
63394;SDS011;49531;-34.520;150.798;2023-05-07T03:19:27;0.85;;;0.80;;
63394;SDS011;49531;-34.520;150.798;2023-05-07T03:21:56;1.05;;;0.73;;
63394;SDS011;49531;-34.520;150.798;2023-05-07T03:24:26;0.80;;;0.80;;
63394;SDS011;49531;-34.520;150.798;2023-05-07T03:26:53;0.95;;;0.70;;
63394;SDS011;49531;-34.520;150.798;2023-05-07T03:29:20;1.65;;;0.77;;
63394;SDS011;49531;-34.520;150.798;2023-05-07T03:31:48;1.25;;;0.70;;
63394;SDS011;49531;-34.520;150.798;2023-05-07T03:34:15;0.80;;;0.60;;
63394;SDS011;49531;-34.520;150.798;2023-05-07T03:36:48;0.60;;;0.60;;
63394;SDS011;49531;-34.520;150.798;2023-05-07T03:39:16;0.82;;;0.55;;
63394;SDS011;49531;-34.520;150.798;2023-05-07T03:41:44;0.60;;;0.60;;
63394;SDS011;49531;-34.520;150.798;2023-05-07T03:44:11;0.75;;;0.60;;
63394;SDS011;49531;-34.520;150.798;2023-05-07T03:46:38;1.20;;;0.80;;
63394;SDS011;49531;-34.520;150.798;2023-05-07T03:49:05;0.82;;;0.70;;
63394;SDS011;49531;-34.520;150.798;2023-05-07T03:51:33;1.55;;;0.70;;
63394;SDS011;49531;-34.520;150.798;2023-05-07T03:54:01;0.80;;;0.70;;
63394;SDS011;49531;-34.520;150.798;2023-05-07T03:56:28;0.88;;;0.70;;
63394;SDS011;49531;-34.520;150.798;2023-05-07T03:58:56;0.88;;;0.60;;
63394;SDS011;49531;-34.520;150.798;2023-05-07T04:01:23;1.10;;;0.60;;
63394;SDS011;49531;-34.520;150.798;2023-05-07T04:03:50;0.65;;;0.60;;
63394;SDS011;49531;-34.520;150.798;2023-05-07T04:06:18;0.77;;;0.63;;
63394;SDS011;49531;-34.520;150.798;2023-05-07T04:08:45;1.70;;;0.50;;
63394;SDS011;49531;-34.520;150.798;2023-05-07T04:11:13;0.52;;;0.52;;
63394;SDS011;49531;-34.520;150.798;2023-05-07T04:13:40;0.70;;;0.70;;
63394;SDS011;49531;-34.520;150.798;2023-05-07T04:16:07;0.93;;;0.68;;
63394;SDS011;49531;-34.520;150.798;2023-05-07T04:18:35;0.70;;;0.70;;
63394;SDS011;49531;-34.520;150.798;2023-05-07T04:21:02;0.63;;;0.63;;
63394;SDS011;49531;-34.520;150.798;2023-05-07T04:23:29;0.65;;;0.60;;
63394;SDS011;49531;-34.520;150.798;2023-05-07T04:25:56;0.63;;;0.60;;
63394;SDS011;49531;-34.520;150.798;2023-05-07T04:28:23;0.95;;;0.65;;
63394;SDS011;49531;-34.520;150.798;2023-05-07T04:30:51;2.80;;;0.60;;
63394;SDS011;49531;-34.520;150.798;2023-05-07T04:33:18;0.95;;;0.70;;
63394;SDS011;49531;-34.520;150.798;2023-05-07T04:35:45;0.60;;;0.60;;
63394;SDS011;49531;-34.520;150.798;2023-05-07T04:38:12;0.65;;;0.60;;
63394;SDS011;49531;-34.520;150.798;2023-05-07T04:40:40;0.55;;;0.55;;
63394;SDS011;49531;-34.520;150.798;2023-05-07T04:43:08;0.75;;;0.60;;
63394;SDS011;49531;-34.520;150.798;2023-05-07T04:45:36;1.67;;;0.70;;
63394;SDS011;49531;-34.520;150.798;2023-05-07T04:48:05;1.15;;;0.73;;
63394;SDS011;49531;-34.520;150.798;2023-05-07T04:50:32;0.77;;;0.60;;
63394;SDS011;49531;-34.520;150.798;2023-05-07T04:53:00;0.77;;;0.73;;
63394;SDS011;49531;-34.520;150.798;2023-05-07T04:55:28;1.67;;;0.70;;
63394;SDS011;49531;-34.520;150.798;2023-05-07T04:57:55;1.10;;;0.70;;
63394;SDS011;49531;-34.520;150.798;2023-05-07T05:00:22;0.75;;;0.75;;
63394;SDS011;49531;-34.520;150.798;2023-05-07T05:02:50;0.73;;;0.63;;
63394;SDS011;49531;-34.520;150.798;2023-05-07T05:05:17;1.35;;;0.80;;
63394;SDS011;49531;-34.520;150.798;2023-05-07T05:07:45;2.05;;;0.80;;
63394;SDS011;49531;-34.520;150.798;2023-05-07T05:10:12;0.77;;;0.77;;
63394;SDS011;49531;-34.520;150.798;2023-05-07T05:12:39;0.80;;;0.80;;
63394;SDS011;49531;-34.520;150.798;2023-05-07T05:15:07;0.80;;;0.80;;
63394;SDS011;49531;-34.520;150.798;2023-05-07T05:17:35;0.77;;;0.77;;
63394;SDS011;49531;-34.520;150.798;2023-05-07T05:20:03;0.80;;;0.80;;
63394;SDS011;49531;-34.520;150.798;2023-05-07T05:22:31;0.80;;;0.80;;
63394;SDS011;49531;-34.520;150.798;2023-05-07T05:24:58;0.80;;;0.80;;
63394;SDS011;49531;-34.520;150.798;2023-05-07T05:27:26;0.90;;;0.90;;
63394;SDS011;49531;-34.520;150.798;2023-05-07T05:29:54;0.80;;;0.80;;
63394;SDS011;49531;-34.520;150.798;2023-05-07T05:32:21;1.02;;;0.93;;
63394;SDS011;49531;-34.520;150.798;2023-05-07T05:34:48;1.00;;;1.00;;
63394;SDS011;49531;-34.520;150.798;2023-05-07T05:37:16;1.10;;;0.98;;
63394;SDS011;49531;-34.520;150.798;2023-05-07T05:39:43;1.27;;;1.00;;
63394;SDS011;49531;-34.520;150.798;2023-05-07T05:42:11;0.90;;;0.90;;
63394;SDS011;49531;-34.520;150.798;2023-05-07T05:44:38;1.23;;;1.15;;
63394;SDS011;49531;-34.520;150.798;2023-05-07T05:47:05;1.20;;;1.10;;
63394;SDS011;49531;-34.520;150.798;2023-05-07T05:49:33;1.67;;;1.58;;
63394;SDS011;49531;-34.520;150.798;2023-05-07T05:52:01;1.10;;;1.10;;
63394;SDS011;49531;-34.520;150.798;2023-05-07T05:54:28;1.40;;;1.30;;
63394;SDS011;49531;-34.520;150.798;2023-05-07T05:56:55;1.30;;;1.20;;
63394;SDS011;49531;-34.520;150.798;2023-05-07T05:59:23;1.45;;;1.35;;
63394;SDS011;49531;-34.520;150.798;2023-05-07T06:01:50;1.30;;;1.20;;
63394;SDS011;49531;-34.520;150.798;2023-05-07T06:04:17;1.40;;;1.30;;
63394;SDS011;49531;-34.520;150.798;2023-05-07T06:06:45;1.70;;;1.60;;
63394;SDS011;49531;-34.520;150.798;2023-05-07T06:09:12;1.60;;;1.50;;
63394;SDS011;49531;-34.520;150.798;2023-05-07T06:11:39;2.15;;;1.50;;
63394;SDS011;49531;-34.520;150.798;2023-05-07T06:14:06;1.50;;;1.40;;
63394;SDS011;49531;-34.520;150.798;2023-05-07T06:16:33;3.33;;;1.40;;
63394;SDS011;49531;-34.520;150.798;2023-05-07T06:19:02;1.65;;;1.50;;
63394;SDS011;49531;-34.520;150.798;2023-05-07T06:21:30;1.55;;;1.45;;
63394;SDS011;49531;-34.520;150.798;2023-05-07T06:23:57;1.50;;;1.40;;
63394;SDS011;49531;-34.520;150.798;2023-05-07T06:26:24;1.50;;;1.40;;
63394;SDS011;49531;-34.520;150.798;2023-05-07T06:28:51;1.48;;;1.38;;
63394;SDS011;49531;-34.520;150.798;2023-05-07T06:31:19;1.40;;;1.30;;
63394;SDS011;49531;-34.520;150.798;2023-05-07T06:33:47;1.48;;;1.38;;
63394;SDS011;49531;-34.520;150.798;2023-05-07T06:36:15;1.45;;;1.35;;
63394;SDS011;49531;-34.520;150.798;2023-05-07T06:38:42;1.33;;;1.23;;
63394;SDS011;49531;-34.520;150.798;2023-05-07T06:41:09;1.15;;;1.15;;
63394;SDS011;49531;-34.520;150.798;2023-05-07T06:43:36;1.20;;;1.10;;
63394;SDS011;49531;-34.520;150.798;2023-05-07T06:46:03;1.20;;;1.10;;
63394;SDS011;49531;-34.520;150.798;2023-05-07T06:48:31;2.03;;;1.20;;
63394;SDS011;49531;-34.520;150.798;2023-05-07T06:50:58;1.30;;;1.10;;
63394;SDS011;49531;-34.520;150.798;2023-05-07T06:53:26;1.10;;;1.00;;
63394;SDS011;49531;-34.520;150.798;2023-05-07T06:55:54;0.93;;;0.93;;
63394;SDS011;49531;-34.520;150.798;2023-05-07T06:58:22;0.98;;;0.98;;
63394;SDS011;49531;-34.520;150.798;2023-05-07T07:00:49;1.05;;;1.00;;
63394;SDS011;49531;-34.520;150.798;2023-05-07T07:03:16;1.00;;;1.00;;
63394;SDS011;49531;-34.520;150.798;2023-05-07T07:05:43;0.90;;;0.90;;
63394;SDS011;49531;-34.520;150.798;2023-05-07T07:08:10;0.80;;;0.80;;
63394;SDS011;49531;-34.520;150.798;2023-05-07T07:10:37;0.85;;;0.85;;
63394;SDS011;49531;-34.520;150.798;2023-05-07T07:13:05;1.00;;;0.90;;
63394;SDS011;49531;-34.520;150.798;2023-05-07T07:15:32;1.17;;;0.77;;
63394;SDS011;49531;-34.520;150.798;2023-05-07T07:17:59;0.82;;;0.82;;
63394;SDS011;49531;-34.520;150.798;2023-05-07T07:20:26;0.80;;;0.80;;
63394;SDS011;49531;-34.520;150.798;2023-05-07T07:22:54;0.98;;;0.80;;
63394;SDS011;49531;-34.520;150.798;2023-05-07T07:25:21;0.80;;;0.80;;
63394;SDS011;49531;-34.520;150.798;2023-05-07T07:27:49;0.80;;;0.80;;
63394;SDS011;49531;-34.520;150.798;2023-05-07T07:30:16;0.70;;;0.70;;
63394;SDS011;49531;-34.520;150.798;2023-05-07T07:32:43;0.70;;;0.70;;
63394;SDS011;49531;-34.520;150.798;2023-05-07T07:35:10;0.73;;;0.70;;
63394;SDS011;49531;-34.520;150.798;2023-05-07T07:37:38;0.70;;;0.68;;
63394;SDS011;49531;-34.520;150.798;2023-05-07T07:40:05;0.75;;;0.60;;
63394;SDS011;49531;-34.520;150.798;2023-05-07T07:42:33;0.88;;;0.60;;
63394;SDS011;49531;-34.520;150.798;2023-05-07T07:45:00;1.02;;;0.60;;
63394;SDS011;49531;-34.520;150.798;2023-05-07T07:47:28;0.60;;;0.60;;
63394;SDS011;49531;-34.520;150.798;2023-05-07T07:49:55;0.60;;;0.60;;
63394;SDS011;49531;-34.520;150.798;2023-05-07T07:52:22;0.60;;;0.60;;
63394;SDS011;49531;-34.520;150.798;2023-05-07T07:54:50;0.85;;;0.60;;
63394;SDS011;49531;-34.520;150.798;2023-05-07T07:57:17;0.52;;;0.52;;
63394;SDS011;49531;-34.520;150.798;2023-05-07T07:59:44;0.60;;;0.60;;
63394;SDS011;49531;-34.520;150.798;2023-05-07T08:02:11;0.55;;;0.55;;
63394;SDS011;49531;-34.520;150.798;2023-05-07T08:04:38;0.50;;;0.50;;
63394;SDS011;49531;-34.520;150.798;2023-05-07T08:07:06;0.40;;;0.40;;
63394;SDS011;49531;-34.520;150.798;2023-05-07T08:09:33;0.50;;;0.50;;
63394;SDS011;49531;-34.520;150.798;2023-05-07T08:12:00;0.47;;;0.47;;
63394;SDS011;49531;-34.520;150.798;2023-05-07T08:14:27;0.50;;;0.50;;
63394;SDS011;49531;-34.520;150.798;2023-05-07T08:16:55;0.40;;;0.40;;
63394;SDS011;49531;-34.520;150.798;2023-05-07T08:19:22;0.40;;;0.40;;
63394;SDS011;49531;-34.520;150.798;2023-05-07T08:21:50;0.40;;;0.40;;
63394;SDS011;49531;-34.520;150.798;2023-05-07T08:24:17;0.50;;;0.50;;
63394;SDS011;49531;-34.520;150.798;2023-05-07T08:26:45;0.47;;;0.47;;
63394;SDS011;49531;-34.520;150.798;2023-05-07T08:29:12;0.55;;;0.50;;
63394;SDS011;49531;-34.520;150.798;2023-05-07T08:31:39;0.40;;;0.40;;
63394;SDS011;49531;-34.520;150.798;2023-05-07T08:34:06;0.40;;;0.40;;
63394;SDS011;49531;-34.520;150.798;2023-05-07T08:36:34;0.50;;;0.50;;
63394;SDS011;49531;-34.520;150.798;2023-05-07T08:39:01;0.43;;;0.43;;
63394;SDS011;49531;-34.520;150.798;2023-05-07T08:41:29;0.40;;;0.40;;
63394;SDS011;49531;-34.520;150.798;2023-05-07T08:43:57;0.43;;;0.43;;
63394;SDS011;49531;-34.520;150.798;2023-05-07T08:46:25;0.73;;;0.50;;
63394;SDS011;49531;-34.520;150.798;2023-05-07T08:48:57;0.50;;;0.50;;
63394;SDS011;49531;-34.520;150.798;2023-05-07T08:51:24;0.40;;;0.40;;
63394;SDS011;49531;-34.520;150.798;2023-05-07T08:53:52;0.50;;;0.40;;
63394;SDS011;49531;-34.520;150.798;2023-05-07T08:56:19;0.47;;;0.40;;
63394;SDS011;49531;-34.520;150.798;2023-05-07T08:58:48;0.45;;;0.45;;
63394;SDS011;49531;-34.520;150.798;2023-05-07T09:01:16;0.30;;;0.30;;
63394;SDS011;49531;-34.520;150.798;2023-05-07T09:03:44;0.40;;;0.40;;
63394;SDS011;49531;-34.520;150.798;2023-05-07T09:06:12;0.40;;;0.40;;
63394;SDS011;49531;-34.520;150.798;2023-05-07T09:08:40;0.40;;;0.40;;
63394;SDS011;49531;-34.520;150.798;2023-05-07T09:11:10;0.40;;;0.40;;
63394;SDS011;49531;-34.520;150.798;2023-05-07T09:13:38;0.40;;;0.40;;
63394;SDS011;49531;-34.520;150.798;2023-05-07T09:16:10;0.93;;;0.50;;
63394;SDS011;49531;-34.520;150.798;2023-05-07T09:18:41;0.40;;;0.40;;
63394;SDS011;49531;-34.520;150.798;2023-05-07T09:21:10;0.77;;;0.50;;
63394;SDS011;49531;-34.520;150.798;2023-05-07T09:23:38;0.40;;;0.40;;
63394;SDS011;49531;-34.520;150.798;2023-05-07T09:26:06;0.40;;;0.40;;
63394;SDS011;49531;-34.520;150.798;2023-05-07T09:28:40;0.65;;;0.40;;
63394;SDS011;49531;-34.520;150.798;2023-05-07T09:31:08;0.73;;;0.40;;
63394;SDS011;49531;-34.520;150.798;2023-05-07T09:33:37;0.30;;;0.30;;
63394;SDS011;49531;-34.520;150.798;2023-05-07T09:36:05;0.30;;;0.30;;
63394;SDS011;49531;-34.520;150.798;2023-05-07T09:38:34;0.40;;;0.40;;
63394;SDS011;49531;-34.520;150.798;2023-05-07T09:41:03;0.40;;;0.40;;
63394;SDS011;49531;-34.520;150.798;2023-05-07T09:43:38;0.90;;;0.50;;
63394;SDS011;49531;-34.520;150.798;2023-05-07T09:46:07;0.50;;;0.50;;
63394;SDS011;49531;-34.520;150.798;2023-05-07T09:51:25;0.40;;;0.40;;
63394;SDS011;49531;-34.520;150.798;2023-05-07T09:53:57;0.80;;;0.40;;
63394;SDS011;49531;-34.520;150.798;2023-05-07T09:56:26;0.47;;;0.47;;
63394;SDS011;49531;-34.520;150.798;2023-05-07T09:58:56;0.60;;;0.50;;
63394;SDS011;49531;-34.520;150.798;2023-05-07T10:01:27;0.75;;;0.43;;
63394;SDS011;49531;-34.520;150.798;2023-05-07T10:03:57;0.65;;;0.50;;
63394;SDS011;49531;-34.520;150.798;2023-05-07T10:06:25;0.60;;;0.40;;
63394;SDS011;49531;-34.520;150.798;2023-05-07T10:08:52;0.32;;;0.32;;
63394;SDS011;49531;-34.520;150.798;2023-05-07T10:11:21;0.40;;;0.40;;
63394;SDS011;49531;-34.520;150.798;2023-05-07T10:13:52;0.30;;;0.30;;
63394;SDS011;49531;-34.520;150.798;2023-05-07T10:16:20;0.50;;;0.40;;
63394;SDS011;49531;-34.520;150.798;2023-05-07T10:18:47;0.30;;;0.30;;
63394;SDS011;49531;-34.520;150.798;2023-05-07T10:21:17;0.43;;;0.40;;
63394;SDS011;49531;-34.520;150.798;2023-05-07T10:23:45;0.30;;;0.30;;
63394;SDS011;49531;-34.520;150.798;2023-05-07T10:26:17;0.60;;;0.40;;
63394;SDS011;49531;-34.520;150.798;2023-05-07T10:28:47;0.40;;;0.40;;
63394;SDS011;49531;-34.520;150.798;2023-05-07T10:31:33;0.50;;;0.43;;
63394;SDS011;49531;-34.520;150.798;2023-05-07T10:34:16;0.73;;;0.40;;
63394;SDS011;49531;-34.520;150.798;2023-05-07T10:36:48;10.02;;;0.45;;
63394;SDS011;49531;-34.520;150.798;2023-05-07T10:39:17;0.35;;;0.35;;
63394;SDS011;49531;-34.520;150.798;2023-05-07T10:41:47;0.70;;;0.40;;
63394;SDS011;49531;-34.520;150.798;2023-05-07T10:44:25;0.50;;;0.40;;
63394;SDS011;49531;-34.520;150.798;2023-05-07T10:49:36;2.78;;;0.40;;
63394;SDS011;49531;-34.520;150.798;2023-05-07T10:52:23;0.50;;;0.40;;
63394;SDS011;49531;-34.520;150.798;2023-05-07T10:57:47;0.40;;;0.32;;
63394;SDS011;49531;-34.520;150.798;2023-05-07T11:05:35;0.30;;;0.30;;
63394;SDS011;49531;-34.520;150.798;2023-05-07T11:08:03;0.30;;;0.30;;
63394;SDS011;49531;-34.520;150.798;2023-05-07T11:16:21;0.30;;;0.30;;
63394;SDS011;49531;-34.520;150.798;2023-05-07T11:18:50;0.20;;;0.20;;
63394;SDS011;49531;-34.520;150.798;2023-05-07T11:21:34;0.20;;;0.20;;
63394;SDS011;49531;-34.520;150.798;2023-05-07T11:24:03;0.30;;;0.28;;
63394;SDS011;49531;-34.520;150.798;2023-05-07T11:26:41;0.20;;;0.20;;
63394;SDS011;49531;-34.520;150.798;2023-05-07T11:29:14;0.20;;;0.20;;
63394;SDS011;49531;-34.520;150.798;2023-05-07T11:31:44;0.55;;;0.30;;
63394;SDS011;49531;-34.520;150.798;2023-05-07T11:34:20;0.47;;;0.22;;
63394;SDS011;49531;-34.520;150.798;2023-05-07T11:36:49;0.30;;;0.30;;
63394;SDS011;49531;-34.520;150.798;2023-05-07T11:39:24;1.05;;;0.30;;
63394;SDS011;49531;-34.520;150.798;2023-05-07T11:41:55;0.20;;;0.20;;
63394;SDS011;49531;-34.520;150.798;2023-05-07T11:44:22;1.45;;;0.30;;
63394;SDS011;49531;-34.520;150.798;2023-05-07T11:46:49;0.20;;;0.20;;
63394;SDS011;49531;-34.520;150.798;2023-05-07T11:49:17;0.10;;;0.10;;
63394;SDS011;49531;-34.520;150.798;2023-05-07T11:51:44;0.30;;;0.30;;
63394;SDS011;49531;-34.520;150.798;2023-05-07T11:54:14;0.30;;;0.30;;
63394;SDS011;49531;-34.520;150.798;2023-05-07T11:56:43;0.20;;;0.20;;
63394;SDS011;49531;-34.520;150.798;2023-05-07T11:59:11;2.95;;;0.30;;
63394;SDS011;49531;-34.520;150.798;2023-05-07T12:01:45;0.20;;;0.20;;
63394;SDS011;49531;-34.520;150.798;2023-05-07T12:04:13;0.20;;;0.20;;
63394;SDS011;49531;-34.520;150.798;2023-05-07T12:06:46;0.52;;;0.20;;
63394;SDS011;49531;-34.520;150.798;2023-05-07T12:09:13;0.30;;;0.30;;
63394;SDS011;49531;-34.520;150.798;2023-05-07T12:11:40;0.28;;;0.28;;
63394;SDS011;49531;-34.520;150.798;2023-05-07T12:14:12;0.50;;;0.30;;
63394;SDS011;49531;-34.520;150.798;2023-05-07T12:16:41;0.30;;;0.30;;
63394;SDS011;49531;-34.520;150.798;2023-05-07T12:19:10;0.30;;;0.30;;
63394;SDS011;49531;-34.520;150.798;2023-05-07T12:21:38;0.52;;;0.30;;
63394;SDS011;49531;-34.520;150.798;2023-05-07T12:24:06;0.70;;;0.35;;
63394;SDS011;49531;-34.520;150.798;2023-05-07T12:26:37;0.43;;;0.32;;
63394;SDS011;49531;-34.520;150.798;2023-05-07T12:29:06;0.30;;;0.30;;
63394;SDS011;49531;-34.520;150.798;2023-05-07T12:31:33;0.30;;;0.30;;
63394;SDS011;49531;-34.520;150.798;2023-05-07T12:34:00;1.05;;;0.30;;
63394;SDS011;49531;-34.520;150.798;2023-05-07T12:36:36;0.40;;;0.38;;
63394;SDS011;49531;-34.520;150.798;2023-05-07T12:39:05;1.02;;;0.40;;
63394;SDS011;49531;-34.520;150.798;2023-05-07T12:44:22;0.50;;;0.40;;
63394;SDS011;49531;-34.520;150.798;2023-05-07T12:46:50;0.40;;;0.40;;
63394;SDS011;49531;-34.520;150.798;2023-05-07T12:49:18;0.77;;;0.40;;
63394;SDS011;49531;-34.520;150.798;2023-05-07T12:51:47;0.47;;;0.40;;
63394;SDS011;49531;-34.520;150.798;2023-05-07T12:57:05;0.30;;;0.30;;
63394;SDS011;49531;-34.520;150.798;2023-05-07T12:59:36;0.63;;;0.30;;
63394;SDS011;49531;-34.520;150.798;2023-05-07T13:02:04;2.25;;;0.40;;
63394;SDS011;49531;-34.520;150.798;2023-05-07T13:04:32;0.90;;;0.50;;
63394;SDS011;49531;-34.520;150.798;2023-05-07T13:07:00;2.25;;;0.40;;
63394;SDS011;49531;-34.520;150.798;2023-05-07T13:09:28;2.00;;;0.45;;
63394;SDS011;49531;-34.520;150.798;2023-05-07T13:11:57;1.55;;;0.50;;
63394;SDS011;49531;-34.520;150.798;2023-05-07T13:14:26;1.63;;;0.40;;
63394;SDS011;49531;-34.520;150.798;2023-05-07T13:16:54;0.30;;;0.30;;
63394;SDS011;49531;-34.520;150.798;2023-05-07T13:19:21;0.65;;;0.40;;
63394;SDS011;49531;-34.520;150.798;2023-05-07T13:21:48;1.65;;;0.38;;
63394;SDS011;49531;-34.520;150.798;2023-05-07T13:24:15;0.85;;;0.40;;
63394;SDS011;49531;-34.520;150.798;2023-05-07T13:26:42;0.38;;;0.32;;
63394;SDS011;49531;-34.520;150.798;2023-05-07T13:29:09;0.35;;;0.25;;
63394;SDS011;49531;-34.520;150.798;2023-05-07T13:31:36;1.50;;;0.40;;
63394;SDS011;49531;-34.520;150.798;2023-05-07T13:34:08;0.60;;;0.60;;
63394;SDS011;49531;-34.520;150.798;2023-05-07T13:36:36;0.40;;;0.40;;
63394;SDS011;49531;-34.520;150.798;2023-05-07T13:39:05;1.83;;;0.40;;
63394;SDS011;49531;-34.520;150.798;2023-05-07T13:41:32;0.30;;;0.30;;
63394;SDS011;49531;-34.520;150.798;2023-05-07T13:43:59;1.58;;;0.40;;
63394;SDS011;49531;-34.520;150.798;2023-05-07T13:46:26;1.05;;;0.38;;
63394;SDS011;49531;-34.520;150.798;2023-05-07T13:48:55;3.10;;;0.35;;
63394;SDS011;49531;-34.520;150.798;2023-05-07T13:51:22;0.50;;;0.30;;
63394;SDS011;49531;-34.520;150.798;2023-05-07T13:53:50;0.32;;;0.30;;
63394;SDS011;49531;-34.520;150.798;2023-05-07T13:56:18;0.30;;;0.30;;
63394;SDS011;49531;-34.520;150.798;2023-05-07T13:58:45;0.30;;;0.30;;
63394;SDS011;49531;-34.520;150.798;2023-05-07T14:01:12;1.20;;;0.30;;
63394;SDS011;49531;-34.520;150.798;2023-05-07T14:03:40;0.25;;;0.20;;
63394;SDS011;49531;-34.520;150.798;2023-05-07T14:06:07;2.08;;;0.50;;
63394;SDS011;49531;-34.520;150.798;2023-05-07T14:08:34;0.98;;;0.32;;
63394;SDS011;49531;-34.520;150.798;2023-05-07T14:11:01;1.77;;;0.32;;
63394;SDS011;49531;-34.520;150.798;2023-05-07T14:13:29;0.80;;;0.35;;
63394;SDS011;49531;-34.520;150.798;2023-05-07T14:15:56;0.30;;;0.30;;
63394;SDS011;49531;-34.520;150.798;2023-05-07T14:18:24;0.75;;;0.40;;
63394;SDS011;49531;-34.520;150.798;2023-05-07T14:20:51;0.52;;;0.40;;
63394;SDS011;49531;-34.520;150.798;2023-05-07T14:23:18;0.30;;;0.30;;
63394;SDS011;49531;-34.520;150.798;2023-05-07T14:25:47;0.40;;;0.40;;
63394;SDS011;49531;-34.520;150.798;2023-05-07T14:28:14;0.43;;;0.40;;
63394;SDS011;49531;-34.520;150.798;2023-05-07T14:30:42;0.45;;;0.40;;
63394;SDS011;49531;-34.520;150.798;2023-05-07T14:33:09;0.40;;;0.40;;
63394;SDS011;49531;-34.520;150.798;2023-05-07T14:35:36;1.80;;;0.43;;
63394;SDS011;49531;-34.520;150.798;2023-05-07T14:38:04;0.30;;;0.30;;